Time;durP1;ratioP1;P1;durP2;ratioP2;P2;SDS_P1;SDS_P2;PMS_P1;PMS_P2;Temp;Humidity;BMP_temperature;BMP_pressure;BME280_temperature;BME280_humidity;BME280_pressure;Samples;Min_cycle;Max_cycle;Signal;HPM_P1;HPM_P2
2022/10/20 00:00:46;;;;;;;11.32;6.05;;;;;;;16.64;40.85;99896.44;3141215;28;20052;-65
2022/10/20 00:02:18;;;;;;;10.23;4.80;;;;;;;16.66;40.90;99893.72;3141079;28;20087;-68
2022/10/20 00:03:59;;;;;;;8.73;5.53;;;;;;;16.68;41.02;99905.84;3141224;28;20053;-65
2022/10/20 00:05:30;;;;;;;10.10;5.63;;;;;;;16.67;41.22;99904.13;3145946;28;20079;-66
2022/10/20 00:07:01;;;;;;;23.52;6.47;;;;;;;16.68;41.17;99907.59;3146018;28;20056;-66
2022/10/20 00:08:32;;;;;;;8.65;5.10;;;;;;;16.69;41.50;99904.03;3146400;28;20048;-66
2022/10/20 00:10:05;;;;;;;11.23;5.63;;;;;;;16.71;41.67;99908.25;3146257;28;20052;-66
2022/10/20 00:11:36;;;;;;;9.77;5.65;;;;;;;16.70;41.45;99903.06;3136184;28;20060;-65
2022/10/20 00:13:08;;;;;;;12.18;5.90;;;;;;;16.72;41.57;99907.28;3146415;28;20403;-64
2022/10/20 00:14:40;;;;;;;14.25;6.55;;;;;;;16.72;41.64;99903.81;3146255;28;20502;-67
2022/10/20 00:16:13;;;;;;;11.40;6.30;;;;;;;16.71;42.22;99900.34;3146276;28;20052;-66
2022/10/20 00:17:45;;;;;;;17.02;5.97;;;;;;;16.70;42.29;99896.03;3146229;28;20044;-66
2022/10/20 00:19:17;;;;;;;14.57;6.10;;;;;;;16.73;42.17;99898.44;3146144;28;20056;-66
2022/10/20 00:20:49;;;;;;;14.68;6.57;;;;;;;16.70;42.24;99884.66;3146093;28;20056;-65
2022/10/20 00:22:21;;;;;;;19.83;6.57;;;;;;;16.75;42.47;99890.47;3145980;28;20101;-66
2022/10/20 00:23:52;;;;;;;13.65;6.43;;;;;;;16.75;42.50;99895.72;3146029;28;20445;-67
2022/10/20 00:25:23;;;;;;;10.38;6.38;;;;;;;16.74;42.62;99894.03;3146023;28;20049;-65
2022/10/20 00:26:55;;;;;;;14.57;6.45;;;;;;;16.73;42.96;99892.34;3133510;28;20454;-66
2022/10/20 00:28:27;;;;;;;21.27;7.22;;;;;;;16.72;43.26;99885.41;3144911;28;20477;-66
2022/10/20 00:29:59;;;;;;;9.75;5.95;;;;;;;16.73;43.18;99893.19;3145718;28;20048;-67
2022/10/20 00:31:31;;;;;;;13.00;6.57;;;;;;;16.76;43.30;99892.16;3146028;28;20048;-66
2022/10/20 00:33:05;;;;;;;9.55;6.40;;;;;;;16.75;43.31;99891.28;3146092;28;20532;-66
2022/10/20 00:34:37;;;;;;;19.70;6.50;;;;;;;16.77;43.66;99883.31;3146050;28;20048;-66
2022/10/20 00:36:11;;;;;;;11.65;6.70;;;;;;;16.79;43.92;99881.44;3145664;28;20078;-66
2022/10/20 00:37:43;;;;;;;10.10;6.03;;;;;;;16.83;43.85;99893.44;3145694;28;20047;-66
2022/10/20 00:39:15;;;;;;;13.00;6.38;;;;;;;16.84;44.15;99884.59;3145337;28;20048;-67
2022/10/20 00:40:45;;;;;;;10.73;6.70;;;;;;;16.89;43.80;99881.63;3145537;28;20059;-67
2022/10/20 00:42:18;;;;;;;12.73;7.38;;;;;;;16.92;43.88;99882.28;3145981;28;20464;-69
2022/10/20 00:43:53;;;;;;;10.65;6.53;;;;;;;16.93;43.85;99888.38;3145446;28;21320;-66
2022/10/20 00:45:25;;;;;;;11.13;7.55;;;;;;;16.91;44.07;99877.94;3145766;28;20048;-74
2022/10/20 00:46:57;;;;;;;14.85;7.97;;;;;;;16.91;44.03;99872.69;3145632;28;20101;-68
2022/10/20 00:48:31;;;;;;;9.50;6.53;;;;;;;16.91;44.06;99872.69;3143688;28;20049;-66
2022/10/20 00:50:09;;;;;;;11.55;7.22;;;;;;;16.89;44.00;99881.63;3145413;28;20056;-68
2022/10/20 00:51:41;;;;;;;12.80;7.05;;;;;;;16.86;44.23;99885.34;3145150;28;20124;-70
2022/10/20 00:53:13;;;;;;;10.63;6.13;;;;;;;16.85;44.24;99880.16;3145853;28;20450;-68
2022/10/20 00:54:44;;;;;;;10.75;6.80;;;;;;;16.82;44.25;99881.22;3145719;28;20048;-66
2022/10/20 00:56:15;;;;;;;12.68;7.13;;;;;;;16.81;44.42;99875.13;3145045;28;20041;-67
2022/10/20 00:57:49;;;;;;;17.38;7.32;;;;;;;16.82;44.80;99871.53;3145504;28;20040;-68
2022/10/20 00:59:26;;;;;;;10.50;7.18;;;;;;;16.81;44.73;99877.75;3145277;28;20099;-64
2022/10/20 01:01:00;;;;;;;14.45;7.05;;;;;;;16.80;45.00;99880.47;3142822;28;20505;-66
2022/10/20 01:02:31;;;;;;;;;;;;;;;16.73;44.78;99873.94;3145907;28;20453;-67
2022/10/20 01:04:03;;;;;;;15.63;6.78;;;;;;;16.73;45.10;99876.56;3145301;28;20246;-66
2022/10/20 01:05:34;;;;;;;11.77;6.70;;;;;;;16.78;45.15;99871.88;3143866;28;20043;-68
2022/10/20 01:07:06;;;;;;;20.02;7.75;;;;;;;16.82;45.11;99886.47;3144338;28;20048;-68
2022/10/20 01:08:37;;;;;;;16.15;7.82;;;;;;;16.86;45.19;99877.44;3144115;28;20052;-67
2022/10/20 01:10:10;;;;;;;14.35;7.70;;;;;;;16.90;45.34;99881.53;3144183;28;20048;-67
2022/10/20 01:11:49;;;;;;;13.32;7.20;;;;;;;16.93;45.40;99877.84;3144635;28;20091;-67
2022/10/20 01:13:29;;;;;;;11.30;7.38;;;;;;;16.95;45.41;99874.16;3144849;28;20048;-67
2022/10/20 01:15:13;;;;;;;10.82;7.45;;;;;;;16.96;45.43;99867.94;3144677;28;20079;-68
2022/10/20 01:16:55;;;;;;;13.15;8.35;;;;;;;17.01;45.58;99873.72;3144452;28;20052;-68
2022/10/20 01:18:33;;;;;;;12.18;7.50;;;;;;;17.04;45.57;99867.41;3144902;28;20052;-68
2022/10/20 01:20:37;;;;;;;19.13;7.75;;;;;;;17.02;45.24;99867.50;3144842;28;20450;-68
2022/10/20 01:22:27;;;;;;;14.57;8.02;;;;;;;17.09;45.47;99872.34;3144622;28;20048;-68
2022/10/20 01:24:37;;;;;;;19.88;8.40;;;;;;;17.10;45.58;99876.66;3144609;28;20048;-68
2022/10/20 01:26:35;;;;;;;14.82;8.30;;;;;;;17.10;45.90;99882.75;3137487;28;20454;-68
2022/10/20 01:28:16;;;;;;;16.05;8.70;;;;;;;17.08;46.33;99873.28;3144346;28;20608;-68
2022/10/20 01:29:53;;;;;;;15.15;8.73;;;;;;;17.13;46.24;99885.19;3144404;28;20052;-68
2022/10/20 01:31:33;;;;;;;19.27;8.63;;;;;;;17.16;46.10;99884.97;3144350;28;20044;-68
2022/10/20 01:33:17;;;;;;;16.63;8.45;;;;;;;17.19;46.18;99881.28;3144240;28;20470;-68
2022/10/20 01:34:52;;;;;;;;;;;;;;;17.08;46.54;99894.34;3144233;28;20049;-68
2022/10/20 01:36:32;;;;;;;17.10;8.43;;;;;;;17.09;46.87;99894.22;3144407;28;19967;-68
2022/10/20 01:38:13;;;;;;;16.83;8.57;;;;;;;17.17;46.50;99893.69;3144285;28;20063;-68
2022/10/20 01:39:50;;;;;;;14.70;8.52;;;;;;;17.21;46.62;99892.50;3143963;28;20060;-68
2022/10/20 01:41:31;;;;;;;20.77;8.85;;;;;;;17.21;46.65;99882.81;3132269;28;20045;-68
2022/10/20 01:43:09;;;;;;;20.15;8.93;;;;;;;17.23;46.36;99895.88;3132830;28;20083;-68
2022/10/20 01:44:43;;;;;;;16.88;9.95;;;;;;;17.25;46.79;99888.72;3142269;28;20518;-68
2022/10/20 01:46:17;;;;;;;15.90;8.82;;;;;;;17.25;46.57;99888.72;3145107;28;20483;-68
2022/10/20 01:47:50;;;;;;;16.30;9.00;;;;;;;17.25;46.74;99891.34;3145322;28;20052;-68
2022/10/20 01:49:23;;;;;;;17.08;8.48;;;;;;;17.25;46.77;99889.56;3144987;28;20060;-68
2022/10/20 01:50:55;;;;;;;17.70;9.63;;;;;;;17.24;46.97;99887.88;3140791;28;20516;-68
2022/10/20 01:52:29;;;;;;;13.90;9.15;;;;;;;17.26;47.01;99893.03;3144487;28;20052;-69
2022/10/20 01:54:00;;;;;;;20.30;9.38;;;;;;;17.23;47.07;99888.81;3145141;28;20487;-68
2022/10/20 01:55:32;;;;;;;15.25;9.77;;;;;;;17.23;47.25;99895.88;3145131;28;20043;-68
2022/10/20 01:57:21;;;;;;;15.13;9.63;;;;;;;17.13;47.12;99879.91;3144621;28;20087;-68
2022/10/20 01:59:30;;;;;;;15.02;9.32;;;;;;;17.20;47.37;99899.56;3144929;28;20068;-68
2022/10/20 02:01:12;;;;;;;17.88;9.63;;;;;;;17.17;47.33;99905.03;3129349;28;20059;-68
2022/10/20 02:02:59;;;;;;;16.77;9.05;;;;;;;17.16;47.32;99907.81;3144842;28;20064;-68
2022/10/20 02:04:41;;;;;;;22.23;11.15;;;;;;;17.13;47.68;99900.97;3144730;28;20105;-68
2022/10/20 02:06:24;;;;;;;20.00;9.98;;;;;;;17.14;47.85;99892.09;3145277;28;20063;-68
2022/10/20 02:08:05;;;;;;;14.05;10.02;;;;;;;17.10;48.17;99892.44;3144907;28;20231;-68
2022/10/20 02:09:42;;;;;;;15.35;9.82;;;;;;;17.09;48.26;99899.47;3144869;28;20513;-68
2022/10/20 02:11:22;;;;;;;17.70;10.57;;;;;;;17.11;48.19;99902.84;3144149;28;20709;-68
2022/10/20 02:12:59;;;;;;;20.40;11.07;;;;;;;17.11;48.16;99899.38;3141728;28;20165;-68
2022/10/20 02:14:32;;;;;;;17.17;10.85;;;;;;;17.08;48.33;99902.22;3144974;28;20059;-68
2022/10/20 02:16:18;;;;;;;20.30;10.55;;;;;;;17.11;48.31;99910.75;3144852;28;20580;-68
2022/10/20 02:17:55;;;;;;;21.52;10.90;;;;;;;17.08;48.28;99900.44;3144900;28;20506;-68
2022/10/20 02:19:33;;;;;;;14.95;10.05;;;;;;;17.06;48.52;99911.06;3144473;28;20048;-68
2022/10/20 02:21:06;;;;;;;18.40;9.85;;;;;;;17.06;48.62;99913.69;3144847;28;20052;-68
2022/10/20 02:22:39;;;;;;;;;;;;;;;16.99;48.21;99903.72;3145338;28;20546;-68
2022/10/20 02:24:14;;;;;;;18.13;10.48;;;;;;;16.95;48.63;99910.16;3144863;28;19920;-68
2022/10/20 02:25:48;;;;;;;13.60;9.73;;;;;;;16.99;48.54;99920.34;3144683;28;20370;-68
2022/10/20 02:27:23;;;;;;;16.35;11.02;;;;;;;17.01;48.62;99918.44;3144812;28;20052;-68
2022/10/20 02:29:00;;;;;;;13.70;9.90;;;;;;;16.98;48.71;99928.34;3144286;28;20045;-68
2022/10/20 02:30:33;;;;;;;15.30;10.80;;;;;;;16.97;48.64;99916.97;3144835;28;20049;-68
2022/10/20 02:32:07;;;;;;;21.52;10.35;;;;;;;16.93;48.96;99912.03;3145182;28;20057;-68
2022/10/20 02:33:43;;;;;;;16.15;10.02;;;;;;;16.92;48.73;99921.72;3144257;28;20044;-68
2022/10/20 02:35:17;;;;;;;19.17;10.88;;;;;;;16.91;48.82;99917.41;3144791;28;20048;-68
2022/10/20 02:36:49;;;;;;;22.08;10.35;;;;;;;16.88;48.90;99928.13;3144542;28;20048;-68
2022/10/20 02:38:20;;;;;;;19.85;10.55;;;;;;;16.89;49.05;99931.59;3144679;28;20630;-68
2022/10/20 02:39:52;;;;;;;15.13;10.70;;;;;;;16.87;49.15;99933.50;3144810;28;20383;-68
2022/10/20 02:41:25;;;;;;;15.93;11.35;;;;;;;16.87;49.05;99926.47;3144624;28;20528;-68
2022/10/20 02:42:57;;;;;;;16.52;10.85;;;;;;;16.85;49.17;99925.72;3144554;28;20090;-68
2022/10/20 02:44:28;;;;;;;19.35;11.30;;;;;;;16.83;49.37;99935.53;3144757;28;20048;-68
2022/10/20 02:45:59;;;;;;;21.35;11.55;;;;;;;16.79;49.56;99926.97;3144534;28;20047;-68
2022/10/20 02:47:31;;;;;;;15.50;10.93;;;;;;;16.71;49.67;99910.00;3144796;28;20053;-68
2022/10/20 02:49:03;;;;;;;18.95;11.75;;;;;;;16.80;49.85;99925.19;3144576;28;20048;-68
2022/10/20 02:50:34;;;;;;;18.75;12.18;;;;;;;16.80;49.63;99933.06;3142485;28;20051;-68
2022/10/20 02:52:06;;;;;;;15.95;11.38;;;;;;;16.79;49.53;99934.88;3142376;28;20063;-67
2022/10/20 02:53:37;;;;;;;16.58;11.95;;;;;;;16.78;49.62;99927.09;3144100;28;20044;-67
2022/10/20 02:55:09;;;;;;;18.55;12.75;;;;;;;16.78;49.89;99927.09;3144442;28;20048;-68
2022/10/20 02:56:40;;;;;;;16.45;11.77;;;;;;;16.74;50.01;99934.34;3140881;28;20117;-68
2022/10/20 02:58:11;;;;;;;19.55;11.05;;;;;;;16.73;50.11;99937.88;3144712;28;20131;-68
2022/10/20 02:59:43;;;;;;;27.05;12.30;;;;;;;16.73;50.18;99939.69;3144683;28;20513;-68
2022/10/20 03:01:15;;;;;;;14.73;11.00;;;;;;;16.74;50.18;99938.72;3144655;28;20532;-67
2022/10/20 03:02:48;;;;;;;15.60;11.50;;;;;;;16.74;50.22;99947.47;3144386;28;20064;-68
2022/10/20 03:04:20;;;;;;;21.13;11.50;;;;;;;16.72;50.17;99951.16;3144927;28;20048;-68
2022/10/20 03:05:51;;;;;;;18.58;12.15;;;;;;;16.70;50.22;99943.34;3144217;28;20044;-68
2022/10/20 03:07:23;;;;;;;15.82;10.70;;;;;;;16.72;50.34;99948.53;3144388;28;20053;-68
2022/10/20 03:08:54;;;;;;;19.27;12.15;;;;;;;16.71;50.44;99957.34;3144776;28;20048;-68
2022/10/20 03:10:26;;;;;;;19.52;12.00;;;;;;;16.71;50.45;99960.84;3144320;28;20536;-68
2022/10/20 03:11:57;;;;;;;17.02;11.95;;;;;;;16.73;50.37;99965.97;3144454;28;20048;-68
2022/10/20 03:13:29;;;;;;;18.95;11.82;;;;;;;16.73;50.23;99974.69;3144695;28;20131;-68
2022/10/20 03:15:01;;;;;;;17.20;11.00;;;;;;;16.74;50.37;99963.25;3144437;28;20050;-68
2022/10/20 03:16:33;;;;;;;22.58;12.65;;;;;;;16.74;50.29;99962.38;3144401;28;20068;-68
2022/10/20 03:18:06;;;;;;;19.45;12.45;;;;;;;16.75;50.45;99964.09;3144753;28;20059;-68
2022/10/20 03:19:38;;;;;;;19.83;11.73;;;;;;;16.71;50.70;99959.97;3144215;28;20055;-68
2022/10/20 03:21:10;;;;;;;17.70;12.05;;;;;;;16.72;50.50;99961.69;3144765;28;20441;-68
2022/10/20 03:22:41;;;;;;;17.60;12.52;;;;;;;16.73;50.65;99971.25;3144868;28;20544;-68
2022/10/20 03:24:13;;;;;;;19.63;12.32;;;;;;;16.70;50.85;99958.31;3146623;28;20051;-68
2022/10/20 03:25:45;;;;;;;18.20;11.80;;;;;;;16.69;50.64;99967.97;3137724;28;20633;-68
2022/10/20 03:27:17;;;;;;;28.20;14.38;;;;;;;16.69;50.87;99965.34;3146529;28;20422;-66
2022/10/20 03:28:48;;;;;;;20.15;12.85;;;;;;;16.71;50.78;99974.00;3146627;28;20083;-68
2022/10/20 03:30:20;;;;;;;26.35;12.43;;;;;;;16.72;50.85;99975.66;3134449;28;20448;-68
2022/10/20 03:31:52;;;;;;;16.25;11.30;;;;;;;16.71;50.72;99984.50;3145770;28;20544;-68
2022/10/20 03:33:25;;;;;;;20.02;12.15;;;;;;;16.71;51.16;99996.78;3146841;28;20060;-68
2022/10/20 03:34:57;;;;;;;22.65;12.30;;;;;;;16.65;51.30;99984.06;3146625;28;20453;-68
2022/10/20 03:36:28;;;;;;;21.75;12.57;;;;;;;16.66;51.14;99988.38;3146721;28;20045;-68
2022/10/20 03:38:00;;;;;;;19.60;12.02;;;;;;;16.67;51.08;99992.69;3147191;28;20059;-68
2022/10/20 03:39:32;;;;;;;19.30;12.57;;;;;;;16.66;51.11;99994.47;3146563;28;20104;-68
2022/10/20 03:41:04;;;;;;;19.30;12.38;;;;;;;16.65;51.16;99997.19;3146561;28;20055;-68
2022/10/20 03:42:36;;;;;;;39.33;12.85;;;;;;;16.63;51.30;100002.56;3146953;28;20505;-67
2022/10/20 03:44:09;;;;;;;17.08;11.73;;;;;;;16.63;51.27;99993.84;3145704;28;20049;-67
2022/10/20 03:45:40;;;;;;;18.38;12.32;;;;;;;16.62;51.32;100000.88;3145941;28;20055;-68
2022/10/20 03:47:13;;;;;;;17.40;12.60;;;;;;;16.61;51.23;100002.66;3145526;28;20126;-68
2022/10/20 03:48:46;;;;;;;19.85;12.32;;;;;;;16.60;51.30;99998.38;3145361;28;20091;-68
2022/10/20 03:50:18;;;;;;;15.75;11.60;;;;;;;16.58;51.23;100002.88;3145982;28;20095;-68
2022/10/20 03:51:49;;;;;;;20.17;12.85;;;;;;;16.57;51.23;100005.63;3140929;28;20045;-67
2022/10/20 03:53:20;;;;;;;20.35;12.35;;;;;;;16.56;51.29;100007.41;3145729;28;20053;-68
2022/10/20 03:54:52;;;;;;;16.75;11.68;;;;;;;16.55;51.25;100003.06;3145496;28;20238;-68
2022/10/20 03:56:24;;;;;;;16.90;12.07;;;;;;;16.51;51.59;100000.78;3143080;28;20066;-67
2022/10/20 03:57:57;;;;;;;21.35;12.75;;;;;;;16.44;51.36;99988.97;3135500;28;20530;-68
2022/10/20 03:59:28;;;;;;;17.52;11.68;;;;;;;16.44;51.55;99992.44;3144548;28;20055;-67
2022/10/20 04:00:59;;;;;;;17.42;11.25;;;;;;;16.50;51.56;100007.78;3144864;28;20055;-67
2022/10/20 04:02:34;;;;;;;16.02;11.65;;;;;;;16.49;51.68;100011.38;3145425;28;20059;-67
2022/10/20 04:04:07;;;;;;;18.33;11.88;;;;;;;16.49;51.49;100006.13;3145406;28;20442;-67
2022/10/20 04:05:39;;;;;;;18.73;12.48;;;;;;;16.49;51.43;100015.81;3146378;28;20045;-68
2022/10/20 04:07:10;;;;;;;17.23;11.52;;;;;;;16.45;51.44;100002.03;3141396;28;20084;-68
2022/10/20 04:08:42;;;;;;;21.25;11.43;;;;;;;16.48;51.69;100012.34;3138244;28;20053;-68
2022/10/20 04:10:16;;;;;;;17.02;11.00;;;;;;;16.46;51.58;100013.38;3146396;28;20189;-68
2022/10/20 04:11:47;;;;;;;;;;;;;;;16.35;51.62;100014.91;3139551;28;20049;-69
2022/10/20 04:13:18;;;;;;;17.33;10.63;;;;;;;16.36;51.73;100011.34;3134148;28;19924;-68
2022/10/20 04:14:51;;;;;;;18.67;11.70;;;;;;;16.38;51.69;100003.34;3145063;28;20059;-67
2022/10/20 04:16:24;;;;;;;19.38;11.75;;;;;;;16.40;51.71;99998.84;3146004;28;20049;-68
2022/10/20 04:17:55;;;;;;;17.35;11.23;;;;;;;16.39;51.47;99999.81;3144500;28;20044;-67
2022/10/20 04:19:28;;;;;;;25.05;11.45;;;;;;;16.40;51.44;100012.00;3144863;28;20581;-65
2022/10/20 04:20:59;;;;;;;17.42;11.05;;;;;;;16.37;51.50;100015.66;3145583;28;20055;-65
2022/10/20 04:22:31;;;;;;;16.83;11.10;;;;;;;16.39;51.18;100015.56;3145973;28;20052;-64
2022/10/20 04:24:04;;;;;;;15.57;10.80;;;;;;;16.43;51.46;100018.84;3146119;28;20044;-64
2022/10/20 04:25:38;;;;;;;16.60;10.95;;;;;;;16.40;51.20;100027.75;3145726;28;20139;-64
2022/10/20 04:27:10;;;;;;;18.23;10.82;;;;;;;16.37;51.49;100017.44;3146111;28;20048;-65
2022/10/20 04:28:41;;;;;;;15.57;10.48;;;;;;;16.38;51.59;100019.13;3145977;28;20157;-64
2022/10/20 04:30:13;;;;;;;18.80;10.43;;;;;;;16.36;51.28;100021.03;3145895;28;20052;-66
2022/10/20 04:31:44;;;;;;;18.33;10.25;;;;;;;16.35;51.25;100022.78;3146100;28;20082;-64
2022/10/20 04:33:16;;;;;;;15.50;9.77;;;;;;;16.36;51.25;100023.66;3145714;28;20045;-65
2022/10/20 04:34:49;;;;;;;14.87;10.07;;;;;;;16.38;51.22;100025.22;3145478;28;20048;-67
2022/10/20 04:36:21;;;;;;;16.65;10.40;;;;;;;16.36;51.25;100021.03;3145933;28;20052;-64
2022/10/20 04:37:53;;;;;;;17.45;10.25;;;;;;;16.39;51.04;100033.97;3145788;28;20056;-63
2022/10/20 04:39:25;;;;;;;24.65;11.18;;;;;;;16.40;50.88;100037.44;3146171;28;20540;-63
2022/10/20 04:40:58;;;;;;;14.02;9.23;;;;;;;16.38;50.99;100037.53;3145680;28;20051;-63
2022/10/20 04:42:29;;;;;;;18.48;10.20;;;;;;;16.38;50.85;100035.72;3146169;28;20049;-62
2022/10/20 04:44:01;;;;;;;13.38;9.63;;;;;;;16.37;50.79;100027.97;3146137;28;20455;-63
2022/10/20 04:45:33;;;;;;;17.08;10.20;;;;;;;16.37;50.77;100034.06;3145585;28;20048;-64
2022/10/20 04:47:05;;;;;;;16.25;9.27;;;;;;;16.35;50.53;100035.09;3145992;28;20541;-61
2022/10/20 04:48:37;;;;;;;16.13;9.95;;;;;;;16.35;50.52;100035.94;3146081;28;20052;-64
2022/10/20 04:50:10;;;;;;;16.08;9.20;;;;;;;16.35;50.39;100037.72;3145521;28;20055;-66
2022/10/20 04:51:42;;;;;;;21.17;9.02;;;;;;;16.25;50.44;100040.13;3144568;28;20052;-62
2022/10/20 04:53:14;;;;;;;17.95;9.63;;;;;;;16.26;50.52;100036.53;3145664;28;20449;-64
2022/10/20 04:54:46;;;;;;;22.33;10.43;;;;;;;16.33;50.47;100052.78;3144962;28;20834;-64
2022/10/20 04:56:19;;;;;;;16.10;8.85;;;;;;;16.28;50.06;100039.06;3144056;28;20052;-65
2022/10/20 04:57:51;;;;;;;;;;;;;;;16.27;50.07;100059.25;3142793;28;20517;-63
2022/10/20 04:59:22;;;;;;;17.45;9.13;;;;;;;16.27;50.16;100061.06;3139168;28;19982;-66
2022/10/20 05:00:54;;;;;;;13.65;8.43;;;;;;;16.32;50.22;100066.84;3139058;28;20049;-66
2022/10/20 05:02:26;;;;;;;13.45;8.90;;;;;;;16.33;50.01;100064.13;3145372;28;20076;-70
2022/10/20 05:03:58;;;;;;;11.95;8.88;;;;;;;16.36;50.00;100070.97;3145909;28;20458;-68
2022/10/20 05:05:31;;;;;;;15.75;9.23;;;;;;;16.34;49.86;100071.06;3145550;28;20048;-67
2022/10/20 05:07:03;;;;;;;19.00;9.23;;;;;;;16.31;50.13;100076.50;3145628;28;20127;-68
2022/10/20 05:08:34;;;;;;;16.83;8.10;;;;;;;16.30;49.97;100077.47;3145705;28;20448;-68
2022/10/20 05:10:06;;;;;;;19.40;9.18;;;;;;;16.32;49.95;100072.09;3145649;28;20074;-68
2022/10/20 05:11:38;;;;;;;13.85;9.15;;;;;;;16.33;50.03;100077.25;3146001;28;20101;-68
2022/10/20 05:13:10;;;;;;;19.13;9.13;;;;;;;16.34;49.58;100075.47;3145702;28;20048;-69
2022/10/20 05:14:42;;;;;;;19.42;9.48;;;;;;;16.38;49.63;100084.84;3144801;28;20072;-69
2022/10/20 05:16:16;;;;;;;17.42;8.90;;;;;;;16.36;49.67;100084.94;3145638;28;20048;-69
2022/10/20 05:17:48;;;;;;;15.07;8.45;;;;;;;16.35;49.99;100091.13;3145388;28;20056;-69
2022/10/20 05:19:19;;;;;;;15.30;8.75;;;;;;;16.38;49.69;100092.72;3145424;28;20051;-69
2022/10/20 05:20:52;;;;;;;12.13;8.57;;;;;;;16.41;49.53;100094.31;3145687;28;20593;-68
2022/10/20 05:22:24;;;;;;;12.50;8.32;;;;;;;16.38;49.61;100100.59;3145076;28;20091;-66
2022/10/20 05:23:57;;;;;;;19.92;8.93;;;;;;;16.38;49.73;100111.13;3145742;28;20779;-66
2022/10/20 05:25:29;;;;;;;14.93;9.05;;;;;;;16.42;49.73;100106.53;3145456;28;20529;-66
2022/10/20 05:27:01;;;;;;;16.70;11.02;;;;;;;16.45;49.55;100107.16;3144990;28;20083;-65
2022/10/20 05:28:33;;;;;;;29.05;10.98;;;;;;;16.52;49.68;100112.88;3145341;28;20041;-65
2022/10/20 05:30:05;;;;;;;17.05;9.15;;;;;;;16.54;49.49;100118.88;3145514;28;20660;-65
2022/10/20 05:31:38;;;;;;;16.80;9.83;;;;;;;16.59;49.51;100117.63;3145461;28;20052;-67
2022/10/20 05:33:11;;;;;;;17.00;10.82;;;;;;;16.63;49.30;100117.44;3145642;28;20313;-68
2022/10/20 05:34:43;;;;;;;17.20;8.93;;;;;;;16.64;49.30;100114.69;3145208;28;20055;-67
2022/10/20 05:36:19;;;;;;;18.55;8.45;;;;;;;16.68;49.13;100116.19;3145556;28;20063;-67
2022/10/20 05:37:50;;;;;;;17.33;8.68;;;;;;;16.72;48.84;100108.94;3145333;28;20046;-66
2022/10/20 05:39:22;;;;;;;17.95;8.55;;;;;;;16.76;48.91;100123.59;3145367;28;20079;-67
2022/10/20 05:40:54;;;;;;;13.18;8.48;;;;;;;16.77;48.84;100125.28;3145485;28;20060;-67
2022/10/20 05:42:26;;;;;;;17.88;10.00;;;;;;;16.79;48.94;100134.75;3137900;28;20619;-65
2022/10/20 05:43:59;;;;;;;13.45;8.98;;;;;;;16.88;48.81;100141.19;3143137;28;20055;-68
2022/10/20 05:45:31;;;;;;;;;;;;;;;16.91;48.70;100137.53;3145309;28;20433;-72
2022/10/20 05:47:03;;;;;;;10.98;7.88;;;;;;;16.96;48.86;100145.97;3143991;28;19927;-74
2022/10/20 05:48:35;;;;;;;13.85;8.52;;;;;;;17.13;48.55;100142.22;3145203;28;20528;-72
2022/10/20 05:50:08;;;;;;;13.10;8.77;;;;;;;17.26;48.35;100148.31;3145203;28;20044;-70
2022/10/20 05:51:42;;;;;;;12.30;7.97;;;;;;;17.38;47.98;100147.50;3138134;28;20735;-70
2022/10/20 05:53:12;;;;;;;;;;;;;;;17.47;47.73;100149.50;3145685;28;20059;-73
2022/10/20 05:54:44;;;;;;;16.15;8.38;;;;;;;17.56;47.67;100148.03;3144853;28;19955;-74
2022/10/20 05:56:18;;;;;;;14.25;8.00;;;;;;;17.82;47.12;100143.63;3143681;28;20045;-70
2022/10/20 05:57:50;;;;;;;12.73;8.20;;;;;;;18.19;46.44;100146.31;3132860;28;20053;-72
2022/10/20 05:59:22;;;;;;;12.77;8.10;;;;;;;18.67;45.57;100151.63;3143900;28;20506;-70
2022/10/20 06:00:54;;;;;;;13.00;7.88;;;;;;;19.18;44.43;100153.16;3145175;28;20060;-67
2022/10/20 06:02:26;;;;;;;13.63;8.07;;;;;;;19.65;43.37;100170.69;3144553;28;20051;-70
2022/10/20 06:03:59;;;;;;;16.17;7.63;;;;;;;20.05;42.42;100162.28;3145127;28;20063;-68
2022/10/20 06:05:31;;;;;;;;;;;;;;;20.59;41.73;100166.81;3145376;28;20049;-67
2022/10/20 06:07:05;;;;;;;13.35;8.15;;;;;;;20.98;40.72;100166.31;3144799;28;20032;-69
2022/10/20 06:08:35;;;;;;;16.85;7.45;;;;;;;21.43;39.80;100156.34;3144081;28;20098;-67
2022/10/20 06:10:08;;;;;;;10.90;7.28;;;;;;;21.92;39.44;100165.41;3144107;28;20048;-69
2022/10/20 06:11:40;;;;;;;13.20;7.28;;;;;;;22.46;38.41;100172.16;3143508;28;20056;-73
2022/10/20 06:13:12;;;;;;;10.32;7.60;;;;;;;22.85;37.54;100180.16;3143456;28;20063;-74
2022/10/20 06:14:44;;;;;;;18.83;7.80;;;;;;;23.22;36.86;100181.28;3143671;28;20048;-70
2022/10/20 06:16:18;;;;;;;17.08;7.40;;;;;;;23.43;36.36;100179.34;3144184;28;20063;-77
2022/10/20 06:17:50;;;;;;;20.73;8.07;;;;;;;23.94;36.04;100188.72;3143762;28;20057;-70
2022/10/20 06:19:23;;;;;;;18.70;7.50;;;;;;;24.51;34.98;100189.44;3143569;28;20048;-69
2022/10/20 06:21:00;;;;;;;10.02;7.05;;;;;;;24.52;34.16;100190.28;3143363;28;20080;-70
2022/10/20 06:22:33;;;;;;;16.52;7.30;;;;;;;24.69;34.01;100188.63;3143628;28;20509;-73
2022/10/20 06:24:06;;;;;;;9.52;7.25;;;;;;;24.81;33.50;100186.56;3143667;28;20165;-73
2022/10/20 06:25:38;;;;;;;19.75;7.30;;;;;;;25.10;33.30;100183.69;3143427;28;20048;-74
2022/10/20 06:27:10;;;;;;;15.45;7.03;;;;;;;25.24;32.75;100187.66;3143448;28;20056;-73
2022/10/20 06:28:41;;;;;;;8.63;6.57;;;;;;;25.19;32.52;100190.78;3143884;28;20048;-74
2022/10/20 06:30:13;;;;;;;12.23;6.65;;;;;;;25.38;32.47;100192.44;3143849;28;20044;-73
2022/10/20 06:31:47;;;;;;;13.98;6.95;;;;;;;25.56;31.78;100187.91;3143683;28;20441;-73
2022/10/20 06:33:18;;;;;;;14.88;6.95;;;;;;;25.72;31.21;100191.66;3143755;28;20053;-75
2022/10/20 06:34:50;;;;;;;15.98;7.38;;;;;;;25.81;31.34;100201.38;3144005;28;20060;-70
2022/10/20 06:36:23;;;;;;;16.48;7.07;;;;;;;26.00;31.25;100193.19;3143654;28;20052;-75
2022/10/20 06:37:56;;;;;;;12.77;7.05;;;;;;;26.19;30.75;100199.28;3143720;28;20045;-69
2022/10/20 06:39:28;;;;;;;14.32;6.82;;;;;;;26.39;30.81;100199.84;3143574;28;20041;-73
2022/10/20 06:41:01;;;;;;;14.10;6.63;;;;;;;26.57;30.01;100207.78;3143764;28;20045;-70
2022/10/20 06:42:33;;;;;;;10.15;7.15;;;;;;;26.67;29.54;100203.94;3143648;28;20415;-69
2022/10/20 06:44:06;;;;;;;17.15;6.90;;;;;;;26.74;29.68;100206.84;3143799;28;20090;-71
2022/10/20 06:45:37;;;;;;;13.35;9.82;;;;;;;26.98;29.80;100206.84;3143028;28;20776;-73
2022/10/20 06:47:09;;;;;;;13.18;8.68;;;;;;;27.27;29.34;100210.06;3144234;28;20076;-73
2022/10/20 06:48:41;;;;;;;15.65;7.63;;;;;;;27.29;28.85;100219.59;3144042;28;20058;-73
2022/10/20 06:50:13;;;;;;;10.02;6.82;;;;;;;27.06;28.55;100206.00;3144249;28;20052;-71
2022/10/20 06:51:44;;;;;;;13.88;6.90;;;;;;;27.06;29.04;100200.66;3143952;28;20566;-74
2022/10/20 06:53:18;;;;;;;12.85;6.57;;;;;;;27.05;28.89;100211.53;3144574;28;20818;-76
2022/10/20 06:54:49;;;;;;;14.95;6.22;;;;;;;26.99;28.90;100224.56;3144554;28;20056;-76
2022/10/20 06:56:22;;;;;;;10.23;5.97;;;;;;;27.03;28.72;100201.00;3139615;28;20125;-77
2022/10/20 06:57:54;;;;;;;9.77;5.85;;;;;;;27.53;28.69;100220.56;3144469;28;20159;-77
2022/10/20 06:59:26;;;;;;;12.95;6.22;;;;;;;27.86;28.02;100213.34;3144330;28;20067;-77
2022/10/20 07:00:59;;;;;;;11.77;5.97;;;;;;;28.07;27.65;100215.47;3144500;28;20079;-77
2022/10/20 07:02:31;;;;;;;;;;;;;;;28.53;27.52;100221.00;3144990;28;20056;-76
2022/10/20 07:04:05;;;;;;;12.68;6.07;;;;;;;28.62;26.99;100211.91;3144447;28;20350;-73
2022/10/20 07:05:37;;;;;;;14.27;6.75;;;;;;;28.77;26.65;100226.22;3144682;28;20052;-75
2022/10/20 07:07:09;;;;;;;15.57;6.20;;;;;;;28.93;26.53;100222.59;3143632;28;20445;-72
2022/10/20 07:08:41;;;;;;;12.88;5.65;;;;;;;29.15;26.15;100217.44;3144027;28;20052;-73
2022/10/20 07:10:13;;;;;;;7.85;5.88;;;;;;;28.97;25.98;100220.38;3144503;28;20052;-77
2022/10/20 07:11:45;;;;;;;17.13;5.22;;;;;;;29.12;26.10;100213.25;3144111;28;20162;-76
2022/10/20 07:13:16;;;;;;;10.20;6.30;;;;;;;29.43;26.01;100204.28;3144524;28;20048;-78